sensor_id;sensor_type;location;lat;lon;timestamp;pressure;altitude;pressure_sealevel;temperature;humidity
46722;BME280;32455;43.430;23.136;2022-10-23T00:02:42;98407.13;;;16.98;49.29
46722;BME280;32455;43.430;23.136;2022-10-23T00:05:28;98402.19;;;16.68;50.17
46722;BME280;32455;43.430;23.136;2022-10-23T00:08:13;98424.13;;;16.62;53.88
46722;BME280;32455;43.430;23.136;2022-10-23T00:10:59;98428.56;;;18.17;43.75
46722;BME280;32455;43.430;23.136;2022-10-23T00:13:45;98434.81;;;18.17;42.65
46722;BME280;32455;43.430;23.136;2022-10-23T00:16:31;98428.94;;;17.83;44.06
46722;BME280;32455;43.430;23.136;2022-10-23T00:19:18;98417.63;;;17.64;45.12
46722;BME280;32455;43.430;23.136;2022-10-23T00:22:03;98436.88;;;17.52;44.33
46722;BME280;32455;43.430;23.136;2022-10-23T00:24:49;98442.94;;;17.27;46.77
46722;BME280;32455;43.430;23.136;2022-10-23T00:27:34;98464.88;;;17.21;47.68
46722;BME280;32455;43.430;23.136;2022-10-23T00:30:20;98466.03;;;16.98;47.90
46722;BME280;32455;43.430;23.136;2022-10-23T00:33:05;98456.56;;;17.00;47.89
46722;BME280;32455;43.430;23.136;2022-10-23T00:35:51;98469.47;;;16.88;48.10
46722;BME280;32455;43.430;23.136;2022-10-23T00:38:37;98475.53;;;16.73;50.54
46722;BME280;32455;43.430;23.136;2022-10-23T00:41:26;98488.59;;;17.03;49.17
46722;BME280;32455;43.430;23.136;2022-10-23T00:47:07;98478.38;;;16.84;49.85
46722;BME280;32455;43.430;23.136;2022-10-23T00:49:53;98479.88;;;16.52;52.92
46722;BME280;32455;43.430;23.136;2022-10-23T00:52:45;98488.81;;;16.09;54.09
46722;BME280;32455;43.430;23.136;2022-10-23T00:55:31;98481.84;;;16.13;54.19
46722;BME280;32455;43.430;23.136;2022-10-23T00:58:19;98484.53;;;15.74;56.96
46722;BME280;32455;43.430;23.136;2022-10-23T01:01:16;98519.69;;;15.86;55.23
46722;BME280;32455;43.430;23.136;2022-10-23T01:04:04;98508.66;;;16.32;49.90
46722;BME280;32455;43.430;23.136;2022-10-23T01:06:53;98525.16;;;16.30;52.10
46722;BME280;32455;43.430;23.136;2022-10-23T01:09:45;98537.91;;;15.91;53.12
46722;BME280;32455;43.430;23.136;2022-10-23T01:16:26;98545.44;;;15.38;58.01
46722;BME280;32455;43.430;23.136;2022-10-23T01:22:23;98532.00;;;15.15;58.61
46722;BME280;32455;43.430;23.136;2022-10-23T01:28:38;98551.69;;;15.10;59.33
46722;BME280;32455;43.430;23.136;2022-10-23T01:32:15;98546.53;;;15.71;55.21
46722;BME280;32455;43.430;23.136;2022-10-23T01:37:33;98558.28;;;15.31;58.77
46722;BME280;32455;43.430;23.136;2022-10-23T01:40:22;98551.78;;;14.87;60.86
46722;BME280;32455;43.430;23.136;2022-10-23T01:43:13;98544.56;;;14.64;61.85
46722;BME280;32455;43.430;23.136;2022-10-23T01:46:07;98569.56;;;15.11;56.74
46722;BME280;32455;43.430;23.136;2022-10-23T01:48:56;98568.69;;;14.94;60.00
46722;BME280;32455;43.430;23.136;2022-10-23T01:51:46;98552.00;;;14.45;61.68
46722;BME280;32455;43.430;23.136;2022-10-23T01:54:37;98574.34;;;14.40;62.62
46722;BME280;32455;43.430;23.136;2022-10-23T01:57:24;98571.41;;;14.53;63.16
46722;BME280;32455;43.430;23.136;2022-10-23T02:00:14;98575.16;;;14.29;63.51
46722;BME280;32455;43.430;23.136;2022-10-23T02:02:59;98577.16;;;13.87;65.98
46722;BME280;32455;43.430;23.136;2022-10-23T02:05:48;98574.81;;;13.90;66.41
46722;BME280;32455;43.430;23.136;2022-10-23T02:08:34;98568.47;;;13.73;66.62
46722;BME280;32455;43.430;23.136;2022-10-23T02:11:20;98565.03;;;13.66;66.77
46722;BME280;32455;43.430;23.136;2022-10-23T02:14:15;98582.63;;;13.57;66.82
46722;BME280;32455;43.430;23.136;2022-10-23T02:17:12;98570.50;;;13.36;68.15
46722;BME280;32455;43.430;23.136;2022-10-23T02:20:16;98573.69;;;13.33;68.10
46722;BME280;32455;43.430;23.136;2022-10-23T02:23:14;98579.78;;;13.28;70.04
46722;BME280;32455;43.430;23.136;2022-10-23T02:26:16;98580.63;;;13.52;69.31
46722;BME280;32455;43.430;23.136;2022-10-23T02:29:21;98594.66;;;13.96;68.32
46722;BME280;32455;43.430;23.136;2022-10-23T02:32:11;98576.59;;;14.20;67.58
46722;BME280;32455;43.430;23.136;2022-10-23T02:34:59;98575.88;;;14.48;67.12
46722;BME280;32455;43.430;23.136;2022-10-23T02:37:56;98593.53;;;14.91;66.09
46722;BME280;32455;43.430;23.136;2022-10-23T02:40:43;98585.09;;;14.87;66.71
46722;BME280;32455;43.430;23.136;2022-10-23T02:43:36;98588.66;;;15.33;64.54
46722;BME280;32455;43.430;23.136;2022-10-23T02:53:09;98614.88;;;15.90;61.91
46722;BME280;32455;43.430;23.136;2022-10-23T02:59:12;98585.28;;;15.88;61.33
46722;BME280;32455;43.430;23.136;2022-10-23T03:04:59;98618.13;;;15.92;62.10
46722;BME280;32455;43.430;23.136;2022-10-23T03:07:45;98626.59;;;15.95;61.99
46722;BME280;32455;43.430;23.136;2022-10-23T03:10:31;98606.94;;;15.55;63.30
46722;BME280;32455;43.430;23.136;2022-10-23T03:13:16;98628.88;;;15.41;64.69
46722;BME280;32455;43.430;23.136;2022-10-23T03:16:01;98630.81;;;15.00;67.38
46722;BME280;32455;43.430;23.136;2022-10-23T03:18:47;98640.44;;;15.37;63.64
46722;BME280;32455;43.430;23.136;2022-10-23T03:21:32;98640.72;;;15.52;63.67
46722;BME280;32455;43.430;23.136;2022-10-23T03:24:18;98635.94;;;15.14;65.34
46722;BME280;32455;43.430;23.136;2022-10-23T03:27:04;98639.75;;;14.89;66.47
46722;BME280;32455;43.430;23.136;2022-10-23T03:29:49;98635.34;;;14.60;68.47
46722;BME280;32455;43.430;23.136;2022-10-23T03:32:34;98640.06;;;14.52;69.01
46722;BME280;32455;43.430;23.136;2022-10-23T03:35:20;98634.75;;;14.34;69.49
46722;BME280;32455;43.430;23.136;2022-10-23T03:38:05;98635.22;;;14.31;70.47
46722;BME280;32455;43.430;23.136;2022-10-23T03:40:50;98644.84;;;14.39;69.90
46722;BME280;32455;43.430;23.136;2022-10-23T03:43:36;98637.88;;;14.90;68.71
46722;BME280;32455;43.430;23.136;2022-10-23T03:46:21;98642.88;;;15.10;69.02
46722;BME280;32455;43.430;23.136;2022-10-23T03:49:07;98648.91;;;15.40;69.48
46722;BME280;32455;43.430;23.136;2022-10-23T03:51:53;98648.06;;;15.40;70.11
46722;BME280;32455;43.430;23.136;2022-10-23T03:54:39;98649.53;;;15.59;70.22
46722;BME280;32455;43.430;23.136;2022-10-23T03:57:24;98637.19;;;15.51;70.76
46722;BME280;32455;43.430;23.136;2022-10-23T04:00:10;98642.53;;;15.46;71.28
46722;BME280;32455;43.430;23.136;2022-10-23T04:02:55;98650.50;;;15.53;71.41
46722;BME280;32455;43.430;23.136;2022-10-23T04:05:41;98652.50;;;15.29;72.43
46722;BME280;32455;43.430;23.136;2022-10-23T04:08:27;98664.50;;;15.21;73.55
46722;BME280;32455;43.430;23.136;2022-10-23T04:11:12;98665.72;;;15.14;73.08
46722;BME280;32455;43.430;23.136;2022-10-23T04:13:57;98666.81;;;15.01;73.06
46722;BME280;32455;43.430;23.136;2022-10-23T04:16:43;98672.47;;;14.88;73.62
46722;BME280;32455;43.430;23.136;2022-10-23T04:19:29;98668.16;;;14.51;75.49
46722;BME280;32455;43.430;23.136;2022-10-23T04:22:14;98667.53;;;14.26;76.20
46722;BME280;32455;43.430;23.136;2022-10-23T04:24:59;98687.63;;;14.30;76.44
46722;BME280;32455;43.430;23.136;2022-10-23T04:27:45;98694.91;;;14.06;77.59
46722;BME280;32455;43.430;23.136;2022-10-23T04:30:30;98704.81;;;13.82;78.81
46722;BME280;32455;43.430;23.136;2022-10-23T04:33:15;98702.25;;;13.57;80.26
46722;BME280;32455;43.430;23.136;2022-10-23T04:36:00;98697.97;;;13.19;82.48
46722;BME280;32455;43.430;23.136;2022-10-23T04:38:45;98689.13;;;13.12;84.47
46722;BME280;32455;43.430;23.136;2022-10-23T04:41:31;98690.19;;;13.30;83.58
46722;BME280;32455;43.430;23.136;2022-10-23T04:44:17;98702.13;;;13.52;82.53
46722;BME280;32455;43.430;23.136;2022-10-23T04:47:03;98694.84;;;13.52;82.28
46722;BME280;32455;43.430;23.136;2022-10-23T04:49:48;98701.13;;;13.65;82.24
46722;BME280;32455;43.430;23.136;2022-10-23T04:52:34;98704.19;;;13.38;84.25
46722;BME280;32455;43.430;23.136;2022-10-23T04:55:20;98718.25;;;13.40;84.69
46722;BME280;32455;43.430;23.136;2022-10-23T04:58:05;98703.31;;;13.26;85.66
46722;BME280;32455;43.430;23.136;2022-10-23T05:00:51;98736.56;;;13.38;84.45
46722;BME280;32455;43.430;23.136;2022-10-23T05:03:38;98726.66;;;13.14;87.04
46722;BME280;32455;43.430;23.136;2022-10-23T05:06:23;98729.84;;;13.11;86.22
46722;BME280;32455;43.430;23.136;2022-10-23T05:09:08;98748.38;;;13.19;86.25
46722;BME280;32455;43.430;23.136;2022-10-23T05:11:54;98748.47;;;12.94;87.36
46722;BME280;32455;43.430;23.136;2022-10-23T05:14:39;98766.50;;;12.75;89.46
46722;BME280;32455;43.430;23.136;2022-10-23T05:17:35;98772.34;;;12.72;89.85
46722;BME280;32455;43.430;23.136;2022-10-23T05:20:28;98751.34;;;12.31;91.81
46722;BME280;32455;43.430;23.136;2022-10-23T05:23:17;98771.84;;;12.32;92.41
46722;BME280;32455;43.430;23.136;2022-10-23T05:26:04;98776.91;;;12.21;93.32
46722;BME280;32455;43.430;23.136;2022-10-23T05:28:50;98768.00;;;11.89;96.56
46722;BME280;32455;43.430;23.136;2022-10-23T05:31:36;98783.88;;;11.97;96.43
46722;BME280;32455;43.430;23.136;2022-10-23T05:34:23;98770.19;;;11.99;96.36
46722;BME280;32455;43.430;23.136;2022-10-23T05:37:12;98774.09;;;12.03;98.45
46722;BME280;32455;43.430;23.136;2022-10-23T05:39:58;98800.56;;;12.44;97.43
46722;BME280;32455;43.430;23.136;2022-10-23T05:42:43;98792.78;;;12.79;96.12
46722;BME280;32455;43.430;23.136;2022-10-23T05:45:29;98809.97;;;12.85;96.53
46722;BME280;32455;43.430;23.136;2022-10-23T05:48:15;98813.94;;;12.83;95.58
46722;BME280;32455;43.430;23.136;2022-10-23T05:51:04;98825.38;;;13.03;96.95
46722;BME280;32455;43.430;23.136;2022-10-23T05:53:51;98831.75;;;13.09;95.39
46722;BME280;32455;43.430;23.136;2022-10-23T05:56:38;98821.78;;;13.09;95.73
46722;BME280;32455;43.430;23.136;2022-10-23T05:59:27;98816.66;;;13.01;95.95
46722;BME280;32455;43.430;23.136;2022-10-23T06:02:12;98824.09;;;13.06;96.60
46722;BME280;32455;43.430;23.136;2022-10-23T06:04:58;98825.09;;;13.11;96.92
46722;BME280;32455;43.430;23.136;2022-10-23T06:07:43;98806.91;;;13.25;96.03
46722;BME280;32455;43.430;23.136;2022-10-23T06:10:30;98837.50;;;13.56;95.27
46722;BME280;32455;43.430;23.136;2022-10-23T06:13:15;98823.97;;;13.74;95.01
46722;BME280;32455;43.430;23.136;2022-10-23T06:16:16;98840.75;;;13.94;95.22
46722;BME280;32455;43.430;23.136;2022-10-23T06:19:02;98843.78;;;14.16;93.96
46722;BME280;32455;43.430;23.136;2022-10-23T06:21:48;98836.47;;;14.35;93.48
46722;BME280;32455;43.430;23.136;2022-10-23T06:24:33;98837.59;;;14.58;92.39
46722;BME280;32455;43.430;23.136;2022-10-23T06:27:18;98845.97;;;14.68;92.48
46722;BME280;32455;43.430;23.136;2022-10-23T06:30:05;98848.94;;;14.90;91.60
46722;BME280;32455;43.430;23.136;2022-10-23T06:32:51;98846.34;;;15.07;91.11
46722;BME280;32455;43.430;23.136;2022-10-23T06:35:36;98840.22;;;15.11;90.56
46722;BME280;32455;43.430;23.136;2022-10-23T06:38:22;98848.00;;;15.31;89.48
46722;BME280;32455;43.430;23.136;2022-10-23T06:41:12;98863.66;;;15.41;89.28
46722;BME280;32455;43.430;23.136;2022-10-23T06:43:58;98846.38;;;15.42;88.71
46722;BME280;32455;43.430;23.136;2022-10-23T06:46:43;98862.47;;;15.60;87.33
46722;BME280;32455;43.430;23.136;2022-10-23T06:49:31;98881.44;;;15.72;86.64
46722;BME280;32455;43.430;23.136;2022-10-23T06:52:16;98869.13;;;15.93;86.32
46722;BME280;32455;43.430;23.136;2022-10-23T06:55:01;98863.47;;;15.94;86.30
46722;BME280;32455;43.430;23.136;2022-10-23T06:57:45;98866.34;;;16.16;85.25
46722;BME280;32455;43.430;23.136;2022-10-23T07:00:31;98863.16;;;16.19;84.83
46722;BME280;32455;43.430;23.136;2022-10-23T07:03:16;98893.09;;;16.53;83.25
46722;BME280;32455;43.430;23.136;2022-10-23T07:06:05;98875.69;;;16.37;82.93
46722;BME280;32455;43.430;23.136;2022-10-23T07:08:51;98877.03;;;16.51;82.44
46722;BME280;32455;43.430;23.136;2022-10-23T07:11:40;98883.22;;;16.64;82.13
46722;BME280;32455;43.430;23.136;2022-10-23T07:14:25;98874.66;;;16.55;81.43
46722;BME280;32455;43.430;23.136;2022-10-23T07:17:10;98875.75;;;16.71;81.87
46722;BME280;32455;43.430;23.136;2022-10-23T07:19:56;98881.53;;;16.91;80.45
46722;BME280;32455;43.430;23.136;2022-10-23T07:22:41;98884.78;;;17.05;80.31
46722;BME280;32455;43.430;23.136;2022-10-23T07:25:26;98878.31;;;16.77;80.29
46722;BME280;32455;43.430;23.136;2022-10-23T07:28:12;98876.53;;;17.00;79.71
46722;BME280;32455;43.430;23.136;2022-10-23T07:30:58;98860.75;;;17.14;80.45
46722;BME280;32455;43.430;23.136;2022-10-23T07:33:44;98868.88;;;17.14;80.37
46722;BME280;32455;43.430;23.136;2022-10-23T07:36:29;98883.34;;;17.19;79.54
46722;BME280;32455;43.430;23.136;2022-10-23T07:39:14;98862.41;;;17.37;78.56
46722;BME280;32455;43.430;23.136;2022-10-23T07:42:00;98879.56;;;17.59;78.16
46722;BME280;32455;43.430;23.136;2022-10-23T07:44:45;98861.25;;;17.71;78.02
46722;BME280;32455;43.430;23.136;2022-10-23T07:47:30;98872.97;;;17.72;78.00
46722;BME280;32455;43.430;23.136;2022-10-23T07:50:17;98874.13;;;17.98;76.97
46722;BME280;32455;43.430;23.136;2022-10-23T07:53:02;98861.13;;;18.00;76.23
46722;BME280;32455;43.430;23.136;2022-10-23T07:56:03;98874.06;;;18.15;74.65
46722;BME280;32455;43.430;23.136;2022-10-23T07:58:50;98871.84;;;18.34;73.43
46722;BME280;32455;43.430;23.136;2022-10-23T08:01:39;98874.50;;;18.29;73.60
46722;BME280;32455;43.430;23.136;2022-10-23T08:04:26;98866.25;;;18.23;72.74
46722;BME280;32455;43.430;23.136;2022-10-23T08:07:12;98878.69;;;18.41;72.97
46722;BME280;32455;43.430;23.136;2022-10-23T08:09:57;98869.63;;;18.31;71.99
46722;BME280;32455;43.430;23.136;2022-10-23T08:12:43;98861.31;;;18.42;71.39
46722;BME280;32455;43.430;23.136;2022-10-23T08:15:28;98873.56;;;18.45;70.75
46722;BME280;32455;43.430;23.136;2022-10-23T08:18:14;98874.97;;;18.74;67.78
46722;BME280;32455;43.430;23.136;2022-10-23T08:21:02;98863.16;;;18.64;69.21
46722;BME280;32455;43.430;23.136;2022-10-23T08:23:47;98870.19;;;18.60;67.58
46722;BME280;32455;43.430;23.136;2022-10-23T08:26:33;98864.34;;;18.73;66.61
46722;BME280;32455;43.430;23.136;2022-10-23T08:29:19;98860.16;;;18.92;61.19
46722;BME280;32455;43.430;23.136;2022-10-23T08:32:04;98861.81;;;18.93;59.89
46722;BME280;32455;43.430;23.136;2022-10-23T08:34:50;98863.22;;;19.01;59.45
46722;BME280;32455;43.430;23.136;2022-10-23T08:37:35;98867.34;;;19.09;60.23
46722;BME280;32455;43.430;23.136;2022-10-23T08:40:23;98857.03;;;19.11;58.31
46722;BME280;32455;43.430;23.136;2022-10-23T08:46:01;98877.06;;;19.32;55.65
46722;BME280;32455;43.430;23.136;2022-10-23T08:48:50;98861.28;;;19.34;56.34
46722;BME280;32455;43.430;23.136;2022-10-23T08:51:41;98864.38;;;19.52;55.42
46722;BME280;32455;43.430;23.136;2022-10-23T08:54:43;98870.69;;;19.58;53.79
46722;BME280;32455;43.430;23.136;2022-10-23T08:57:34;98869.59;;;19.59;52.12
46722;BME280;32455;43.430;23.136;2022-10-23T09:00:22;98858.38;;;19.50;54.09
46722;BME280;32455;43.430;23.136;2022-10-23T09:03:09;98854.59;;;19.57;52.75
46722;BME280;32455;43.430;23.136;2022-10-23T09:11:43;98875.75;;;19.87;52.84
46722;BME280;32455;43.430;23.136;2022-10-23T09:15:17;98862.03;;;19.66;51.39
46722;BME280;32455;43.430;23.136;2022-10-23T09:18:14;98871.59;;;19.74;51.70
46722;BME280;32455;43.430;23.136;2022-10-23T09:21:00;98870.28;;;19.82;49.78
46722;BME280;32455;43.430;23.136;2022-10-23T09:23:45;98865.44;;;19.94;50.95
46722;BME280;32455;43.430;23.136;2022-10-23T09:26:31;98870.16;;;20.14;51.32
46722;BME280;32455;43.430;23.136;2022-10-23T09:29:24;98868.00;;;20.26;52.47
46722;BME280;32455;43.430;23.136;2022-10-23T09:32:09;98858.69;;;20.17;50.15
46722;BME280;32455;43.430;23.136;2022-10-23T09:34:55;98868.84;;;20.26;49.78
46722;BME280;32455;43.430;23.136;2022-10-23T09:37:45;98856.25;;;20.25;47.73
46722;BME280;32455;43.430;23.136;2022-10-23T09:40:40;98871.34;;;20.43;48.72
46722;BME280;32455;43.430;23.136;2022-10-23T09:43:26;98852.75;;;20.45;47.24
46722;BME280;32455;43.430;23.136;2022-10-23T09:46:13;98854.72;;;20.55;46.87
46722;BME280;32455;43.430;23.136;2022-10-23T09:48:58;98863.41;;;20.47;47.60
46722;BME280;32455;43.430;23.136;2022-10-23T09:54:59;98853.34;;;20.53;46.93
46722;BME280;32455;43.430;23.136;2022-10-23T09:57:46;98835.34;;;20.52;45.52
46722;BME280;32455;43.430;23.136;2022-10-23T10:00:31;98872.22;;;20.74;46.25
46722;BME280;32455;43.430;23.136;2022-10-23T10:03:20;98864.03;;;20.69;45.55
46722;BME280;32455;43.430;23.136;2022-10-23T10:06:27;98860.47;;;20.89;45.47
46722;BME280;32455;43.430;23.136;2022-10-23T10:09:15;98861.84;;;20.87;45.57
46722;BME280;32455;43.430;23.136;2022-10-23T10:12:30;98863.22;;;20.79;45.23
46722;BME280;32455;43.430;23.136;2022-10-23T10:25:31;98840.53;;;21.09;45.04
46722;BME280;32455;43.430;23.136;2022-10-23T10:41:33;98821.91;;;21.26;42.75
46722;BME280;32455;43.430;23.136;2022-10-23T10:50:19;98802.78;;;21.37;42.48
46722;BME280;32455;43.430;23.136;2022-10-23T10:55:58;98818.09;;;21.43;44.92
46722;BME280;32455;43.430;23.136;2022-10-23T10:58:58;98806.84;;;21.49;42.24
46722;BME280;32455;43.430;23.136;2022-10-23T11:04:46;98808.72;;;21.64;40.44
46722;BME280;32455;43.430;23.136;2022-10-23T11:07:40;98801.56;;;21.73;40.59
46722;BME280;32455;43.430;23.136;2022-10-23T11:10:26;98796.72;;;21.55;40.97
46722;BME280;32455;43.430;23.136;2022-10-23T11:16:18;98806.75;;;21.75;39.53
46722;BME280;32455;43.430;23.136;2022-10-23T11:19:17;98800.09;;;21.91;39.44
46722;BME280;32455;43.430;23.136;2022-10-23T11:34:28;98782.84;;;21.96;40.81
46722;BME280;32455;43.430;23.136;2022-10-23T11:37:20;98767.50;;;22.00;39.94
46722;BME280;32455;43.430;23.136;2022-10-23T11:42:52;98752.69;;;22.01;39.54
46722;BME280;32455;43.430;23.136;2022-10-23T11:45:39;98769.69;;;22.03;37.17
46722;BME280;32455;43.430;23.136;2022-10-23T11:48:42;98782.22;;;22.09;37.68
46722;BME280;32455;43.430;23.136;2022-10-23T11:51:40;98771.94;;;21.91;38.51
46722;BME280;32455;43.430;23.136;2022-10-23T11:54:25;98763.06;;;22.09;37.99
46722;BME280;32455;43.430;23.136;2022-10-23T11:57:13;98755.94;;;22.13;38.51
46722;BME280;32455;43.430;23.136;2022-10-23T11:59:59;98753.50;;;22.07;38.23
46722;BME280;32455;43.430;23.136;2022-10-23T12:02:50;98761.13;;;22.10;37.59
46722;BME280;32455;43.430;23.136;2022-10-23T12:05:37;98752.69;;;22.06;37.51
46722;BME280;32455;43.430;23.136;2022-10-23T12:08:28;98750.19;;;22.10;37.49
46722;BME280;32455;43.430;23.136;2022-10-23T12:11:41;98755.13;;;22.08;36.72
46722;BME280;32455;43.430;23.136;2022-10-23T12:14:30;98740.84;;;22.21;37.22
46722;BME280;32455;43.430;23.136;2022-10-23T12:23:33;98757.31;;;22.16;37.40
46722;BME280;32455;43.430;23.136;2022-10-23T12:30:00;98748.88;;;22.02;37.63
46722;BME280;32455;43.430;23.136;2022-10-23T12:33:09;98745.56;;;22.10;38.55
46722;BME280;32455;43.430;23.136;2022-10-23T12:38:55;98734.31;;;22.12;37.25
46722;BME280;32455;43.430;23.136;2022-10-23T12:41:43;98737.59;;;22.14;38.50
46722;BME280;32455;43.430;23.136;2022-10-23T12:44:28;98737.34;;;22.05;38.69
46722;BME280;32455;43.430;23.136;2022-10-23T12:47:16;98725.16;;;21.87;37.70
46722;BME280;32455;43.430;23.136;2022-10-23T12:50:13;98728.59;;;22.08;37.89
46722;BME280;32455;43.430;23.136;2022-10-23T12:53:04;98728.66;;;21.98;37.65
46722;BME280;32455;43.430;23.136;2022-10-23T12:56:00;98728.06;;;22.01;36.73
46722;BME280;32455;43.430;23.136;2022-10-23T12:58:57;98729.94;;;22.11;37.65
46722;BME280;32455;43.430;23.136;2022-10-23T13:01:46;98736.78;;;22.08;37.28
46722;BME280;32455;43.430;23.136;2022-10-23T13:04:33;98724.53;;;22.00;37.16
46722;BME280;32455;43.430;23.136;2022-10-23T13:07:22;98733.84;;;21.99;37.07
46722;BME280;32455;43.430;23.136;2022-10-23T13:10:15;98725.97;;;21.93;37.61
46722;BME280;32455;43.430;23.136;2022-10-23T13:13:03;98722.72;;;21.86;36.47
46722;BME280;32455;43.430;23.136;2022-10-23T13:15:50;98729.78;;;21.92;36.98
46722;BME280;32455;43.430;23.136;2022-10-23T13:18:39;98742.88;;;22.00;37.16
46722;BME280;32455;43.430;23.136;2022-10-23T13:21:27;98725.44;;;21.86;38.18
46722;BME280;32455;43.430;23.136;2022-10-23T13:24:18;98727.91;;;21.87;37.75
46722;BME280;32455;43.430;23.136;2022-10-23T13:27:29;98728.91;;;22.02;36.76
46722;BME280;32455;43.430;23.136;2022-10-23T13:30:32;98728.13;;;21.96;38.26
46722;BME280;32455;43.430;23.136;2022-10-23T13:33:23;98724.59;;;21.90;36.92
46722;BME280;32455;43.430;23.136;2022-10-23T13:39:13;98725.13;;;21.92;37.20
46722;BME280;32455;43.430;23.136;2022-10-23T13:42:10;98726.78;;;21.88;37.66
46722;BME280;32455;43.430;23.136;2022-10-23T13:44:56;98696.28;;;21.66;37.59
46722;BME280;32455;43.430;23.136;2022-10-23T13:47:42;98719.47;;;21.79;37.71
46722;BME280;32455;43.430;23.136;2022-10-23T13:50:27;98719.53;;;21.68;37.97
46722;BME280;32455;43.430;23.136;2022-10-23T13:53:13;98721.97;;;21.70;37.89
46722;BME280;32455;43.430;23.136;2022-10-23T13:56:00;98717.94;;;21.57;38.31
46722;BME280;32455;43.430;23.136;2022-10-23T13:58:46;98717.91;;;21.62;38.68
46722;BME280;32455;43.430;23.136;2022-10-23T14:01:33;98722.06;;;21.55;38.79
46722;BME280;32455;43.430;23.136;2022-10-23T14:04:21;98707.31;;;21.45;38.04
46722;BME280;32455;43.430;23.136;2022-10-23T14:07:08;98708.75;;;21.38;38.48
46722;BME280;32455;43.430;23.136;2022-10-23T14:09:53;98703.53;;;21.36;38.80
46722;BME280;32455;43.430;23.136;2022-10-23T14:12:40;98691.78;;;21.36;38.64
46722;BME280;32455;43.430;23.136;2022-10-23T14:15:26;98691.53;;;21.22;38.94
46722;BME280;32455;43.430;23.136;2022-10-23T14:18:11;98697.53;;;21.29;38.64
46722;BME280;32455;43.430;23.136;2022-10-23T14:21:00;98704.09;;;21.28;39.83
46722;BME280;32455;43.430;23.136;2022-10-23T14:23:47;98711.81;;;21.11;40.41
46722;BME280;32455;43.430;23.136;2022-10-23T14:26:32;98706.63;;;21.09;40.62
46722;BME280;32455;43.430;23.136;2022-10-23T14:29:18;98696.81;;;21.03;40.69
46722;BME280;32455;43.430;23.136;2022-10-23T14:32:03;98696.06;;;20.82;41.17
46722;BME280;32455;43.430;23.136;2022-10-23T14:34:50;98691.16;;;20.74;41.15
46722;BME280;32455;43.430;23.136;2022-10-23T14:37:36;98692.75;;;20.80;41.24
46722;BME280;32455;43.430;23.136;2022-10-23T14:40:23;98706.97;;;20.72;42.50
46722;BME280;32455;43.430;23.136;2022-10-23T14:43:09;98696.91;;;20.62;42.35
46722;BME280;32455;43.430;23.136;2022-10-23T14:45:54;98684.59;;;20.29;43.90
46722;BME280;32455;43.430;23.136;2022-10-23T14:48:40;98700.69;;;20.15;45.59
46722;BME280;32455;43.430;23.136;2022-10-23T14:51:27;98705.31;;;19.84;47.38
46722;BME280;32455;43.430;23.136;2022-10-23T14:54:14;98704.22;;;19.80;47.67
46722;BME280;32455;43.430;23.136;2022-10-23T14:56:59;98703.44;;;19.27;49.74
46722;BME280;32455;43.430;23.136;2022-10-23T14:59:45;98677.47;;;19.04;50.77
46722;BME280;32455;43.430;23.136;2022-10-23T15:02:31;98697.00;;;18.86;51.89
46722;BME280;32455;43.430;23.136;2022-10-23T15:05:16;98692.78;;;18.68;53.58
46722;BME280;32455;43.430;23.136;2022-10-23T15:08:01;98689.69;;;18.17;55.02
46722;BME280;32455;43.430;23.136;2022-10-23T15:10:46;98684.38;;;18.00;55.30
46722;BME280;32455;43.430;23.136;2022-10-23T15:13:32;98664.91;;;17.59;57.83
46722;BME280;32455;43.430;23.136;2022-10-23T15:16:17;98675.22;;;17.57;57.58
46722;BME280;32455;43.430;23.136;2022-10-23T15:19:02;98685.84;;;17.37;58.42
46722;BME280;32455;43.430;23.136;2022-10-23T15:21:48;98692.09;;;17.15;59.60
46722;BME280;32455;43.430;23.136;2022-10-23T15:24:33;98661.59;;;16.86;60.56
46722;BME280;32455;43.430;23.136;2022-10-23T15:27:19;98694.56;;;17.17;59.91
46722;BME280;32455;43.430;23.136;2022-10-23T15:30:04;98684.53;;;17.17;59.10
46722;BME280;32455;43.430;23.136;2022-10-23T15:32:50;98689.69;;;17.41;58.01
46722;BME280;32455;43.430;23.136;2022-10-23T15:35:35;98658.91;;;17.30;57.23
46722;BME280;32455;43.430;23.136;2022-10-23T15:38:21;98682.38;;;17.41;57.56
46722;BME280;32455;43.430;23.136;2022-10-23T15:41:14;98697.09;;;17.72;56.17
46722;BME280;32455;43.430;23.136;2022-10-23T15:44:01;98696.94;;;17.79;55.83
46722;BME280;32455;43.430;23.136;2022-10-23T15:46:47;98692.81;;;17.76;54.52
46722;BME280;32455;43.430;23.136;2022-10-23T15:49:32;98699.66;;;17.79;55.61
46722;BME280;32455;43.430;23.136;2022-10-23T15:52:17;98692.53;;;17.29;57.68
46722;BME280;32455;43.430;23.136;2022-10-23T15:55:03;98696.53;;;17.43;56.80
46722;BME280;32455;43.430;23.136;2022-10-23T15:57:48;98687.31;;;17.22;57.39
46722;BME280;32455;43.430;23.136;2022-10-23T16:00:34;98699.31;;;17.26;57.58
46722;BME280;32455;43.430;23.136;2022-10-23T16:03:20;98705.81;;;17.25;57.42
46722;BME280;32455;43.430;23.136;2022-10-23T16:06:11;98714.59;;;17.33;57.23
46722;BME280;32455;43.430;23.136;2022-10-23T16:08:57;98700.75;;;17.12;57.42
46722;BME280;32455;43.430;23.136;2022-10-23T16:11:42;98715.03;;;17.02;58.24
46722;BME280;32455;43.430;23.136;2022-10-23T16:14:28;98705.31;;;17.07;57.69
46722;BME280;32455;43.430;23.136;2022-10-23T16:17:14;98709.97;;;16.89;58.57
46722;BME280;32455;43.430;23.136;2022-10-23T16:19:58;98708.56;;;16.87;58.72
46722;BME280;32455;43.430;23.136;2022-10-23T16:22:43;98689.69;;;16.75;58.30
46722;BME280;32455;43.430;23.136;2022-10-23T16:25:28;98724.00;;;17.03;57.13
46722;BME280;32455;43.430;23.136;2022-10-23T16:28:14;98726.75;;;17.08;56.56
46722;BME280;32455;43.430;23.136;2022-10-23T16:30:59;98725.84;;;17.19;55.93